createdAt,value
2018-05-09T00:00:35.272Z,13.40
2018-05-09T00:03:02.661Z,13.47
2018-05-09T00:05:30.044Z,13.34
2018-05-09T00:07:57.419Z,13.34
2018-05-09T00:10:24.821Z,13.40
2018-05-09T00:12:52.203Z,13.33
2018-05-09T00:15:19.588Z,13.27
2018-05-09T00:17:48.008Z,13.03
2018-05-09T00:20:15.397Z,13.04
2018-05-09T00:22:42.785Z,12.96
2018-05-09T00:25:10.179Z,12.90
2018-05-09T00:27:37.570Z,12.84
2018-05-09T00:30:04.965Z,12.69
2018-05-09T00:32:32.352Z,12.67
2018-05-09T00:34:59.744Z,12.53
2018-05-09T00:37:27.138Z,12.50
2018-05-09T00:39:54.524Z,12.36
2018-05-09T00:42:21.916Z,12.35
2018-05-09T00:44:49.314Z,12.48
2018-05-09T00:47:16.692Z,12.37
2018-05-09T00:49:44.085Z,12.38
2018-05-09T00:52:12.304Z,12.60
2018-05-09T00:54:39.698Z,12.59
2018-05-09T00:57:07.081Z,12.60
2018-05-09T00:59:34.468Z,12.59
2018-05-09T01:02:01.852Z,12.51
2018-05-09T01:04:29.248Z,12.64
2018-05-09T01:06:56.636Z,12.70
2018-05-09T01:09:24.045Z,12.63
2018-05-09T01:11:51.436Z,12.53
2018-05-09T01:14:19.707Z,12.46
2018-05-09T01:16:47.032Z,12.31
2018-05-09T01:19:14.416Z,12.29
2018-05-09T01:21:41.821Z,12.21
2018-05-09T01:24:09.204Z,12.16
2018-05-09T01:26:36.602Z,12.12
2018-05-09T01:29:03.992Z,12.07
2018-05-09T01:31:31.379Z,11.79
2018-05-09T01:33:58.770Z,11.88
2018-05-09T01:36:26.621Z,11.82
2018-05-09T01:38:54.008Z,11.99
2018-05-09T01:41:21.400Z,11.97
2018-05-09T01:43:48.784Z,12.03
2018-05-09T01:46:17.161Z,12.08
2018-05-09T01:48:44.540Z,12.17
2018-05-09T01:51:12.774Z,12.18
2018-05-09T01:53:40.145Z,12.14
2018-05-09T01:56:07.533Z,12.21
2018-05-09T01:58:34.922Z,12.34
2018-05-09T02:01:02.308Z,12.47
2018-05-09T02:03:29.699Z,12.61
2018-05-09T02:05:57.104Z,12.64
2018-05-09T02:08:24.471Z,12.53
2018-05-09T02:10:51.862Z,12.41
2018-05-09T02:13:19.241Z,12.29
2018-05-09T02:15:46.637Z,12.18
2018-05-09T02:18:14.017Z,12.21
2018-05-09T02:20:41.413Z,12.26
2018-05-09T02:23:08.796Z,12.21
2018-05-09T02:25:36.191Z,11.96
2018-05-09T02:28:03.615Z,11.86
2018-05-09T02:30:30.999Z,11.55
2018-05-09T02:32:58.391Z,11.49
2018-05-09T02:35:25.844Z,11.43
2018-05-09T02:37:54.149Z,11.44
2018-05-09T02:40:22.195Z,11.47
2018-05-09T02:42:50.165Z,11.24
2018-05-09T02:45:17.550Z,11.21
2018-05-09T02:47:44.949Z,11.18
2018-05-09T02:50:12.329Z,11.13
2018-05-09T02:52:39.733Z,10.98
2018-05-09T02:55:07.112Z,10.99
2018-05-09T02:57:34.502Z,11.18
2018-05-09T03:00:01.884Z,11.21
2018-05-09T03:02:29.290Z,11.20
2018-05-09T03:04:56.663Z,11.23
2018-05-09T03:07:24.076Z,11.31
2018-05-09T03:09:51.466Z,11.31
2018-05-09T03:12:18.849Z,11.22
2018-05-09T03:14:46.233Z,11.18
2018-05-09T03:17:13.631Z,11.33
2018-05-09T03:19:41.008Z,11.09
2018-05-09T03:22:08.411Z,11.07
2018-05-09T03:24:35.784Z,11.05
2018-05-09T03:27:03.176Z,11.05
2018-05-09T03:29:30.573Z,11.22
2018-05-09T03:31:57.956Z,11.28
2018-05-09T03:34:25.337Z,11.28
2018-05-09T03:36:52.736Z,11.28
2018-05-09T03:39:20.116Z,11.48
2018-05-09T03:41:47.509Z,11.57
2018-05-09T03:44:14.889Z,11.67
2018-05-09T03:46:42.274Z,11.64
2018-05-09T03:49:09.676Z,11.67
2018-05-09T03:51:37.061Z,11.53
2018-05-09T03:54:04.456Z,11.53
2018-05-09T03:56:31.851Z,11.49
2018-05-09T03:58:59.248Z,11.58
2018-05-09T04:01:26.686Z,11.39
2018-05-09T04:04:06.593Z,11.37
2018-05-09T04:06:45.725Z,11.37
2018-05-09T04:09:25.162Z,11.32
2018-05-09T04:11:52.450Z,11.17
2018-05-09T04:14:20.748Z,11.18
2018-05-09T04:16:48.132Z,10.95
2018-05-09T04:19:15.522Z,10.84
2018-05-09T04:21:42.908Z,10.80
2018-05-09T04:24:10.303Z,10.96
2018-05-09T04:26:37.693Z,11.11
2018-05-09T04:29:05.084Z,11.38
2018-05-09T04:31:33.371Z,11.49
2018-05-09T04:34:00.764Z,11.45
2018-05-09T04:36:28.144Z,11.58
2018-05-09T04:38:55.852Z,11.65
2018-05-09T04:41:23.246Z,11.74
2018-05-09T04:43:50.638Z,11.76
2018-05-09T04:46:18.024Z,11.72
2018-05-09T04:48:45.422Z,11.73
2018-05-09T04:51:12.856Z,11.93
2018-05-09T04:53:40.253Z,12.06
2018-05-09T04:56:07.649Z,12.14
2018-05-09T04:58:35.055Z,12.29
2018-05-09T05:01:02.436Z,12.29
2018-05-09T05:03:29.835Z,12.47
2018-05-09T05:05:57.241Z,12.47
2018-05-09T05:08:24.641Z,12.53
2018-05-09T05:10:52.036Z,12.50
2018-05-09T05:13:19.424Z,12.66
2018-05-09T05:15:46.911Z,12.75
2018-05-09T05:18:14.208Z,12.96
2018-05-09T05:20:41.603Z,13.04
2018-05-09T05:23:08.976Z,13.16
2018-05-09T05:25:36.379Z,13.23
2018-05-09T05:28:03.767Z,13.52
2018-05-09T05:30:31.156Z,14.48
2018-05-09T05:32:58.545Z,14.95
2018-05-09T05:35:25.936Z,14.89
2018-05-09T05:37:53.331Z,15.43
2018-05-09T05:40:20.727Z,17.41
2018-05-09T05:42:48.104Z,19.27
2018-05-09T05:45:15.547Z,20.75
2018-05-09T05:47:42.886Z,21.72
2018-05-09T05:50:10.711Z,21.42
2018-05-09T05:52:38.110Z,22.56
2018-05-09T05:55:05.485Z,22.94
2018-05-09T05:57:32.884Z,23.55
2018-05-09T06:00:00.274Z,24.03
2018-05-09T06:02:27.669Z,24.06
2018-05-09T06:04:55.054Z,24.79
2018-05-09T06:07:22.448Z,23.65
2018-05-09T06:09:49.835Z,22.37
2018-05-09T06:12:17.232Z,22.63
2018-05-09T06:14:45.455Z,24.12
2018-05-09T06:17:12.940Z,24.53
2018-05-09T06:19:40.259Z,24.38
2018-05-09T06:22:07.660Z,24.56
2018-05-09T06:24:35.056Z,25.38
2018-05-09T06:27:02.445Z,25.09
2018-05-09T06:29:29.827Z,24.11
2018-05-09T06:31:58.056Z,22.15
2018-05-09T06:34:25.445Z,20.68
2018-05-09T06:36:52.847Z,20.37
2018-05-09T06:39:20.244Z,19.92
2018-05-09T06:41:47.693Z,19.30
2018-05-09T06:44:15.035Z,19.12
2018-05-09T06:46:43.564Z,18.91
2018-05-09T06:49:10.976Z,18.83
2018-05-09T06:51:38.369Z,18.79
2018-05-09T06:54:05.783Z,18.81
2018-05-09T06:56:33.150Z,18.74
2018-05-09T06:59:00.741Z,18.65
2018-05-09T07:01:28.112Z,18.53
2018-05-09T07:03:55.518Z,18.67
2018-05-09T07:06:23.009Z,18.95
2018-05-09T07:08:50.312Z,18.91
2018-05-09T07:11:17.698Z,18.86
2018-05-09T07:13:45.091Z,18.97
2018-05-09T07:16:12.476Z,19.02
2018-05-09T07:18:39.877Z,19.26
2018-05-09T07:21:07.252Z,19.49
2018-05-09T07:23:34.652Z,19.37
2018-05-09T07:26:02.279Z,18.99
2018-05-09T07:28:30.249Z,18.97
2018-05-09T07:30:57.660Z,18.89
2018-05-09T07:33:25.036Z,18.54
2018-05-09T07:35:52.421Z,18.70
2018-05-09T07:38:19.822Z,18.82
2018-05-09T07:40:47.200Z,19.16
2018-05-09T07:43:14.613Z,19.43
2018-05-09T07:45:41.997Z,19.30
2018-05-09T07:48:09.401Z,19.56
2018-05-09T07:50:36.789Z,19.88
2018-05-09T07:53:04.176Z,20.00
2018-05-09T07:55:31.614Z,20.25
2018-05-09T07:57:58.975Z,20.11
2018-05-09T08:00:26.357Z,19.72
2018-05-09T08:02:53.765Z,19.99
2018-05-09T08:05:21.172Z,20.21
2018-05-09T08:07:48.571Z,20.01
2018-05-09T08:10:16.589Z,20.30
2018-05-09T08:12:44.434Z,20.08
2018-05-09T08:15:11.776Z,20.12
2018-05-09T08:17:39.167Z,20.26
2018-05-09T08:20:07.480Z,20.22
2018-05-09T08:22:34.867Z,20.02
2018-05-09T08:25:02.263Z,20.29
2018-05-09T08:27:29.653Z,20.31
2018-05-09T08:29:57.074Z,20.63
2018-05-09T08:32:24.445Z,20.63
2018-05-09T08:34:51.836Z,20.77
2018-05-09T08:37:19.232Z,20.60
2018-05-09T08:39:46.633Z,20.87
2018-05-09T08:42:14.015Z,20.77
2018-05-09T08:44:41.404Z,20.84
2018-05-09T08:47:08.795Z,20.78
2018-05-09T08:49:36.205Z,21.10
2018-05-09T08:52:03.584Z,20.98
2018-05-09T08:54:30.984Z,21.19
2018-05-09T08:56:58.379Z,21.45
2018-05-09T08:59:25.765Z,21.52
2018-05-09T09:01:53.561Z,21.08
2018-05-09T09:04:20.997Z,21.12
2018-05-09T09:06:48.341Z,21.48
2018-05-09T09:09:15.732Z,21.59
2018-05-09T09:11:43.122Z,21.63
2018-05-09T09:14:10.543Z,21.55
2018-05-09T09:16:37.938Z,21.71
2018-05-09T09:19:05.316Z,21.79
2018-05-09T09:21:32.706Z,21.56
2018-05-09T09:24:00.129Z,21.74
2018-05-09T09:26:27.856Z,21.66
2018-05-09T09:28:55.237Z,21.98
2018-05-09T09:31:22.641Z,21.92
2018-05-09T09:33:50.038Z,21.96
2018-05-09T09:36:17.434Z,22.19
2018-05-09T09:38:44.820Z,22.17
2018-05-09T09:41:12.212Z,22.04
2018-05-09T09:43:40.029Z,22.06
2018-05-09T09:46:07.656Z,22.26
2018-05-09T09:48:35.041Z,22.10
2018-05-09T09:51:02.427Z,22.25
2018-05-09T09:53:29.815Z,22.59
2018-05-09T09:55:57.210Z,22.06
2018-05-09T09:58:24.604Z,22.22
2018-05-09T10:00:52.690Z,22.21
2018-05-09T10:03:20.093Z,22.27
2018-05-09T10:05:47.480Z,22.56
2018-05-09T10:08:14.861Z,22.80
2018-05-09T10:10:43.028Z,23.16
2018-05-09T10:13:10.423Z,23.40
2018-05-09T10:15:37.815Z,23.44
2018-05-09T10:18:05.201Z,23.26
2018-05-09T10:20:32.585Z,23.05
2018-05-09T10:22:59.972Z,22.75
2018-05-09T10:25:27.371Z,22.97
2018-05-09T10:27:54.999Z,23.24
2018-05-09T10:30:22.411Z,22.95
2018-05-09T10:32:49.994Z,22.86
2018-05-09T10:35:17.358Z,23.00
2018-05-09T10:37:44.748Z,23.40
2018-05-09T10:40:12.142Z,23.62
2018-05-09T10:42:40.209Z,23.95
2018-05-09T10:45:07.601Z,24.41
2018-05-09T10:47:34.994Z,24.67
2018-05-09T10:50:02.379Z,25.05
2018-05-09T10:52:29.788Z,25.28
2018-05-09T10:54:57.177Z,24.93
2018-05-09T10:57:24.583Z,23.90
2018-05-09T10:59:51.960Z,24.28
2018-05-09T11:02:19.404Z,24.38
2018-05-09T11:04:46.830Z,23.75
2018-05-09T11:07:14.215Z,24.26
2018-05-09T11:09:41.601Z,24.02
2018-05-09T11:12:08.992Z,23.99
2018-05-09T11:14:36.382Z,23.61
2018-05-09T11:17:03.788Z,23.97
2018-05-09T11:19:31.396Z,24.29
2018-05-09T11:21:58.788Z,24.37
2018-05-09T11:24:26.277Z,23.74
2018-05-09T11:26:53.569Z,23.76
2018-05-09T11:29:20.948Z,23.46
2018-05-09T11:31:48.345Z,23.24
2018-05-09T11:34:15.745Z,22.64
2018-05-09T11:36:43.140Z,22.64
2018-05-09T11:39:10.602Z,22.79
2018-05-09T11:41:37.985Z,23.22
2018-05-09T11:44:05.390Z,23.88
2018-05-09T11:46:32.769Z,24.02
2018-05-09T11:49:00.983Z,23.78
2018-05-09T11:51:28.385Z,24.41
2018-05-09T11:53:55.779Z,24.57
2018-05-09T11:56:23.155Z,24.65
2018-05-09T11:58:50.545Z,24.33
2018-05-09T12:01:17.938Z,24.37
2018-05-09T12:03:45.329Z,24.28
2018-05-09T12:06:12.727Z,24.17
2018-05-09T12:08:40.118Z,23.82
2018-05-09T12:11:07.506Z,23.70
2018-05-09T12:13:34.906Z,23.72
2018-05-09T12:16:02.300Z,23.93
2018-05-09T12:18:29.722Z,23.58
2018-05-09T12:20:57.108Z,23.67
2018-05-09T12:23:24.512Z,23.61
2018-05-09T12:25:51.897Z,24.10
2018-05-09T12:28:19.295Z,24.22
2018-05-09T12:30:46.687Z,23.92
2018-05-09T12:33:14.068Z,23.81
2018-05-09T12:35:41.465Z,24.11
2018-05-09T12:38:08.840Z,23.92
2018-05-09T12:40:36.240Z,24.19
2018-05-09T12:43:03.635Z,24.33
2018-05-09T12:45:31.041Z,24.30
2018-05-09T12:47:58.420Z,24.31
2018-05-09T12:50:25.812Z,24.31
2018-05-09T12:52:54.313Z,24.71
2018-05-09T12:55:22.620Z,25.20
2018-05-09T12:57:50.008Z,25.24
2018-05-09T13:00:17.417Z,25.06
2018-05-09T13:02:44.797Z,25.43
2018-05-09T13:05:12.192Z,25.11
2018-05-09T13:07:39.596Z,24.80
2018-05-09T13:10:06.983Z,25.14
2018-05-09T13:12:34.393Z,24.89
2018-05-09T13:15:01.787Z,24.69
2018-05-09T13:17:29.171Z,24.56
2018-05-09T13:19:56.564Z,24.58
2018-05-09T13:22:24.616Z,24.70
2018-05-09T13:24:52.007Z,24.71
2018-05-09T13:27:19.396Z,24.57
2018-05-09T13:29:47.804Z,24.24
2018-05-09T13:32:15.186Z,24.07
2018-05-09T13:34:43.176Z,24.45
2018-05-09T13:37:10.546Z,24.10
2018-05-09T13:39:37.959Z,24.12
2018-05-09T13:42:05.356Z,23.84
2018-05-09T13:44:33.092Z,23.80
2018-05-09T13:47:00.488Z,24.05
2018-05-09T13:49:27.955Z,24.25
2018-05-09T13:51:55.382Z,24.56
2018-05-09T13:54:22.760Z,24.57
2018-05-09T13:56:50.144Z,24.64
2018-05-09T13:59:18.082Z,24.95
2018-05-09T14:01:45.487Z,24.49
2018-05-09T14:04:12.892Z,24.30
2018-05-09T14:06:40.605Z,24.60
2018-05-09T14:09:07.998Z,24.72
2018-05-09T14:11:35.396Z,24.52
2018-05-09T14:14:02.809Z,24.63
2018-05-09T14:16:30.984Z,24.66
2018-05-09T14:18:58.357Z,24.35
2018-05-09T14:21:26.458Z,24.60
2018-05-09T14:23:53.838Z,24.65
2018-05-09T14:26:21.225Z,24.68
2018-05-09T14:28:49.871Z,24.70
2018-05-09T14:31:17.674Z,24.42
2018-05-09T14:33:45.053Z,24.23
2018-05-09T14:36:13.115Z,24.43
2018-05-09T14:38:40.484Z,24.94
2018-05-09T14:41:07.880Z,24.50
2018-05-09T14:43:35.268Z,24.63
2018-05-09T14:46:02.706Z,24.97
2018-05-09T14:48:30.989Z,25.05
2018-05-09T14:50:58.379Z,24.46
2018-05-09T14:53:26.608Z,24.60
2018-05-09T14:55:54.360Z,25.00
2018-05-09T14:58:21.744Z,24.86
2018-05-09T15:00:49.741Z,25.34
2018-05-09T15:03:17.141Z,25.32
2018-05-09T15:05:44.802Z,25.11
2018-05-09T15:08:12.188Z,24.87
2018-05-09T15:10:39.572Z,24.74
2018-05-09T15:13:06.970Z,24.58
2018-05-09T15:15:34.354Z,24.71
2018-05-09T15:18:01.761Z,25.16
2018-05-09T15:20:29.176Z,25.27
2018-05-09T15:22:56.563Z,25.39
2018-05-09T15:25:23.958Z,25.28
2018-05-09T15:27:51.360Z,25.12
2018-05-09T15:30:18.754Z,25.20
2018-05-09T15:32:46.246Z,25.52
2018-05-09T15:35:13.547Z,25.58
2018-05-09T15:37:41.849Z,25.68
2018-05-09T15:40:09.269Z,26.32
2018-05-09T15:42:37.916Z,26.72
2018-05-09T15:45:05.313Z,27.07
2018-05-09T15:47:32.716Z,26.31
2018-05-09T15:50:00.809Z,25.64
2018-05-09T15:52:28.556Z,25.66
2018-05-09T15:54:55.950Z,25.76
2018-05-09T15:57:23.336Z,25.87
2018-05-09T15:59:52.299Z,25.42
2018-05-09T16:02:19.696Z,25.27
2018-05-09T16:04:47.084Z,24.88
2018-05-09T16:07:15.311Z,24.74
2018-05-09T16:12:16.449Z,24.43
2018-05-09T16:14:43.826Z,24.26
2018-05-09T16:17:11.220Z,24.27
2018-05-09T16:19:38.602Z,24.17
2018-05-09T16:22:05.988Z,24.18
2018-05-09T16:24:33.382Z,23.97
2018-05-09T16:27:00.789Z,23.98
2018-05-09T16:29:29.088Z,23.94
2018-05-09T16:31:56.482Z,23.93
2018-05-09T16:34:24.757Z,24.01
2018-05-09T16:36:52.889Z,24.20
2018-05-09T16:39:20.932Z,24.31
2018-05-09T16:41:48.321Z,24.14
2018-05-09T16:44:15.727Z,23.90
2018-05-09T16:46:43.104Z,23.92
2018-05-09T16:49:10.504Z,23.81
2018-05-09T16:51:37.885Z,23.74
2018-05-09T16:54:05.272Z,23.71
2018-05-09T16:56:32.664Z,23.64
2018-05-09T16:59:00.052Z,23.71
2018-05-09T17:01:28.768Z,23.83
2018-05-09T17:03:56.400Z,23.77
2018-05-09T17:06:23.803Z,23.65
2018-05-09T17:08:51.192Z,23.76
2018-05-09T17:11:18.572Z,24.19
2018-05-09T17:13:45.957Z,24.57
2018-05-09T17:16:14.204Z,24.96
2018-05-09T17:18:41.672Z,24.79
2018-05-09T17:21:20.782Z,24.90
2018-05-09T17:23:48.166Z,25.02
2018-05-09T17:26:15.569Z,24.58
2018-05-09T17:28:44.648Z,24.16
2018-05-09T17:31:12.044Z,24.20
2018-05-09T17:33:39.439Z,24.19
2018-05-09T17:36:06.829Z,24.11
2018-05-09T17:38:34.222Z,23.96
2018-05-09T17:41:01.648Z,23.72
2018-05-09T17:43:29.029Z,23.63
2018-05-09T17:45:56.414Z,23.67
2018-05-09T17:48:23.813Z,23.66
2018-05-09T17:50:51.208Z,23.49
2018-05-09T17:53:18.868Z,23.23
2018-05-09T17:55:47.750Z,23.25
2018-05-09T17:58:15.948Z,23.10
2018-05-09T18:00:43.353Z,23.01
2018-05-09T18:03:10.731Z,22.92
2018-05-09T18:05:38.124Z,22.91
2018-05-09T18:08:05.517Z,22.92
2018-05-09T18:10:32.905Z,22.74
2018-05-09T18:13:00.293Z,22.66
2018-05-09T18:15:27.706Z,22.54
2018-05-09T18:17:55.978Z,22.45
2018-05-09T18:20:23.372Z,22.43
2018-05-09T18:22:50.821Z,22.32
2018-05-09T18:25:18.218Z,22.22
2018-05-09T18:27:45.612Z,22.10
2018-05-09T18:30:13.000Z,22.10
2018-05-09T18:32:40.401Z,22.02
2018-05-09T18:35:07.768Z,21.89
2018-05-09T18:37:35.175Z,21.72
2018-05-09T18:40:03.630Z,21.64
2018-05-09T18:42:30.946Z,21.57
2018-05-09T18:44:58.324Z,21.49
2018-05-09T18:47:25.715Z,21.38
2018-05-09T18:49:55.889Z,21.36
2018-05-09T18:52:23.278Z,21.33
2018-05-09T18:54:52.052Z,21.31
2018-05-09T18:57:19.453Z,21.17
2018-05-09T18:59:46.852Z,21.07
2018-05-09T19:02:14.232Z,20.97
2018-05-09T19:04:41.620Z,20.93
2018-05-09T19:07:09.018Z,20.88
2018-05-09T19:09:36.403Z,20.67
2018-05-09T19:12:04.082Z,20.63
2018-05-09T19:14:31.479Z,20.52
2018-05-09T19:16:59.799Z,20.55
2018-05-09T19:19:27.958Z,20.47
2018-05-09T19:21:56.950Z,20.31
2018-05-09T19:24:24.326Z,20.11
2018-05-09T19:26:51.742Z,20.01
2018-05-09T19:29:19.113Z,19.96
2018-05-09T19:31:46.562Z,19.89
2018-05-09T19:34:13.952Z,19.81
2018-05-09T19:36:41.324Z,19.77
2018-05-09T19:39:08.712Z,19.65
2018-05-09T19:41:36.330Z,19.54
2018-05-09T19:44:03.650Z,19.55
2018-05-09T19:46:31.035Z,19.45
2018-05-09T19:48:59.787Z,19.15
2018-05-09T19:51:27.164Z,19.08
2018-05-09T19:53:54.576Z,19.00
2018-05-09T19:56:21.956Z,18.96
2018-05-09T19:58:49.359Z,18.79
2018-05-09T20:01:16.758Z,18.84
2018-05-09T20:03:44.152Z,18.46
2018-05-09T20:06:11.543Z,18.52
2018-05-09T20:08:38.981Z,18.52
2018-05-09T20:11:06.318Z,18.50
2018-05-09T20:13:33.728Z,18.42
2018-05-09T20:16:01.117Z,18.30
2018-05-09T20:18:28.670Z,18.29
2018-05-09T20:20:56.041Z,18.20
2018-05-09T20:23:23.464Z,18.17
2018-05-09T20:25:50.876Z,18.11
2018-05-09T20:28:18.267Z,18.09
2018-05-09T20:30:51.316Z,18.13
2018-05-09T20:33:18.716Z,18.09
2018-05-09T20:35:46.100Z,18.04
2018-05-09T20:38:14.067Z,18.02
2018-05-09T20:40:41.445Z,18.06
2018-05-09T20:43:08.849Z,18.06
2018-05-09T20:45:36.241Z,18.00
2018-05-09T20:48:03.621Z,17.98
2018-05-09T20:50:31.305Z,17.70
2018-05-09T20:52:58.687Z,17.53
2018-05-09T20:55:27.894Z,17.45
2018-05-09T20:57:55.335Z,17.40
2018-05-09T21:00:22.724Z,17.35
2018-05-09T21:02:50.145Z,17.40
2018-05-09T21:05:17.512Z,17.43
2018-05-09T21:07:55.623Z,17.36
2018-05-09T21:10:23.016Z,17.37
2018-05-09T21:12:50.397Z,17.38
2018-05-09T21:15:17.791Z,17.43
2018-05-09T21:17:45.172Z,17.49
2018-05-09T21:20:12.600Z,17.32
2018-05-09T21:22:39.956Z,17.38
2018-05-09T21:25:07.356Z,17.49
2018-05-09T21:27:34.797Z,17.45
2018-05-09T21:30:02.794Z,17.35
2018-05-09T21:32:30.187Z,17.37
2018-05-09T21:34:57.584Z,17.43
2018-05-09T21:37:24.966Z,17.73
2018-05-09T21:39:52.360Z,17.91
2018-05-09T21:42:19.749Z,18.03
2018-05-09T21:44:47.142Z,18.18
2018-05-09T21:47:14.524Z,18.49
2018-05-09T21:49:41.942Z,18.99
2018-05-09T21:52:09.296Z,19.16
2018-05-09T21:54:36.681Z,19.03
2018-05-09T21:57:04.096Z,18.75
2018-05-09T22:02:38.176Z,18.61
2018-05-09T22:05:05.557Z,18.35
2018-05-09T22:07:32.945Z,18.29
2018-05-09T22:10:00.372Z,18.18
2018-05-09T22:12:27.761Z,17.95
2018-05-09T22:14:55.154Z,18.55
2018-05-09T22:17:22.548Z,19.18
2018-05-09T22:19:49.937Z,18.63
2018-05-09T22:22:17.330Z,18.58
2018-05-09T22:24:45.821Z,19.31
2018-05-09T22:27:13.238Z,18.54
2018-05-09T22:29:40.628Z,18.48
2018-05-09T22:32:08.032Z,17.80
2018-05-09T22:34:35.407Z,17.25
2018-05-09T22:37:02.796Z,17.03
2018-05-09T22:39:30.197Z,16.94
2018-05-09T22:41:57.593Z,17.00
2018-05-09T22:44:24.975Z,16.93
2018-05-09T22:46:52.378Z,17.08
2018-05-09T22:49:19.763Z,17.10
2018-05-09T22:51:47.153Z,17.22
2018-05-09T22:54:14.536Z,17.13
2018-05-09T22:56:41.920Z,17.05
2018-05-09T22:59:09.305Z,16.87
2018-05-09T23:01:36.688Z,16.65
2018-05-09T23:04:04.067Z,16.52
2018-05-09T23:06:31.471Z,16.66
2018-05-09T23:08:58.874Z,17.07
2018-05-09T23:11:26.249Z,17.17
2018-05-09T23:13:53.639Z,17.29
2018-05-09T23:16:21.039Z,16.58
2018-05-09T23:18:48.425Z,16.54
2018-05-09T23:21:15.840Z,16.00
2018-05-09T23:23:43.234Z,15.46
2018-05-09T23:26:10.606Z,15.61
2018-05-09T23:28:38.018Z,16.10
2018-05-09T23:31:05.548Z,16.60
2018-05-09T23:33:32.955Z,16.62
2018-05-09T23:36:00.351Z,16.38
2018-05-09T23:38:27.746Z,15.95
2018-05-09T23:40:55.133Z,15.49
2018-05-09T23:43:22.533Z,15.66
2018-05-09T23:45:49.923Z,15.93
2018-05-09T23:48:17.309Z,16.55
2018-05-09T23:50:44.693Z,16.26
2018-05-09T23:53:12.071Z,15.99
2018-05-09T23:55:39.513Z,15.82
2018-05-09T23:58:06.848Z,15.73
